sensor_id;sensor_type;location;lat;lon;timestamp;temperature;humidity
56538;DHT22;42435;53.292;6.000;2023-05-10T00:00:03;14.20;83.80
56538;DHT22;42435;53.292;6.000;2023-05-10T00:02:30;14.20;83.80
56538;DHT22;42435;53.292;6.000;2023-05-10T00:04:55;14.20;83.80
56538;DHT22;42435;53.292;6.000;2023-05-10T00:07:21;14.20;83.90
56538;DHT22;42435;53.292;6.000;2023-05-10T00:09:46;14.20;83.90
56538;DHT22;42435;53.292;6.000;2023-05-10T00:12:12;14.10;83.90
56538;DHT22;42435;53.292;6.000;2023-05-10T00:14:40;14.10;83.90
56538;DHT22;42435;53.292;6.000;2023-05-10T00:17:06;14.10;83.90
56538;DHT22;42435;53.292;6.000;2023-05-10T00:19:32;14.10;84.00
56538;DHT22;42435;53.292;6.000;2023-05-10T00:21:57;14.00;83.90
56538;DHT22;42435;53.292;6.000;2023-05-10T00:24:23;14.00;84.00
56538;DHT22;42435;53.292;6.000;2023-05-10T00:26:48;14.00;84.00
56538;DHT22;42435;53.292;6.000;2023-05-10T00:29:14;14.00;84.00
56538;DHT22;42435;53.292;6.000;2023-05-10T00:31:40;14.00;84.00
56538;DHT22;42435;53.292;6.000;2023-05-10T00:34:07;13.90;84.10
56538;DHT22;42435;53.292;6.000;2023-05-10T00:36:32;13.90;84.10
56538;DHT22;42435;53.292;6.000;2023-05-10T00:38:58;13.90;84.10
56538;DHT22;42435;53.292;6.000;2023-05-10T00:41:24;13.90;84.00
56538;DHT22;42435;53.292;6.000;2023-05-10T00:43:49;13.90;84.10
56538;DHT22;42435;53.292;6.000;2023-05-10T00:46:15;13.90;84.00
56538;DHT22;42435;53.292;6.000;2023-05-10T00:48:43;13.90;84.10
56538;DHT22;42435;53.292;6.000;2023-05-10T00:51:09;13.80;84.10
56538;DHT22;42435;53.292;6.000;2023-05-10T00:53:35;13.80;84.10
56538;DHT22;42435;53.292;6.000;2023-05-10T00:56:05;13.80;84.20
56538;DHT22;42435;53.292;6.000;2023-05-10T00:58:31;13.70;84.30
56538;DHT22;42435;53.292;6.000;2023-05-10T01:00:56;13.80;84.40
56538;DHT22;42435;53.292;6.000;2023-05-10T01:03:23;13.70;84.40
56538;DHT22;42435;53.292;6.000;2023-05-10T01:05:50;13.70;84.40
56538;DHT22;42435;53.292;6.000;2023-05-10T01:08:15;13.70;84.40
56538;DHT22;42435;53.292;6.000;2023-05-10T01:10:42;13.70;84.40
56538;DHT22;42435;53.292;6.000;2023-05-10T01:13:11;13.70;84.40
56538;DHT22;42435;53.292;6.000;2023-05-10T01:15:37;13.60;84.50
56538;DHT22;42435;53.292;6.000;2023-05-10T01:18:04;13.60;84.50
56538;DHT22;42435;53.292;6.000;2023-05-10T01:20:37;13.60;84.50
56538;DHT22;42435;53.292;6.000;2023-05-10T01:23:35;13.50;84.70
56538;DHT22;42435;53.292;6.000;2023-05-10T01:29:38;13.50;84.90
56538;DHT22;42435;53.292;6.000;2023-05-10T01:32:24;13.50;84.90
56538;DHT22;42435;53.292;6.000;2023-05-10T01:35:02;13.50;84.80
56538;DHT22;42435;53.292;6.000;2023-05-10T01:40:35;13.40;84.90
56538;DHT22;42435;53.292;6.000;2023-05-10T01:43:04;13.40;85.00
56538;DHT22;42435;53.292;6.000;2023-05-10T01:45:58;13.40;84.90
56538;DHT22;42435;53.292;6.000;2023-05-10T01:48:27;13.40;85.10
56538;DHT22;42435;53.292;6.000;2023-05-10T01:50:55;13.40;85.10
56538;DHT22;42435;53.292;6.000;2023-05-10T01:53:22;13.40;85.20
56538;DHT22;42435;53.292;6.000;2023-05-10T01:55:50;13.30;85.20
56538;DHT22;42435;53.292;6.000;2023-05-10T01:58:25;13.40;85.30
56538;DHT22;42435;53.292;6.000;2023-05-10T02:00:53;13.30;85.40
56538;DHT22;42435;53.292;6.000;2023-05-10T02:03:23;13.30;85.40
56538;DHT22;42435;53.292;6.000;2023-05-10T02:05:50;13.30;85.50
56538;DHT22;42435;53.292;6.000;2023-05-10T02:08:17;13.30;85.50
56538;DHT22;42435;53.292;6.000;2023-05-10T02:10:45;13.30;85.60
56538;DHT22;42435;53.292;6.000;2023-05-10T02:13:13;13.30;85.60
56538;DHT22;42435;53.292;6.000;2023-05-10T02:15:40;13.30;85.50
56538;DHT22;42435;53.292;6.000;2023-05-10T02:18:07;13.20;85.60
56538;DHT22;42435;53.292;6.000;2023-05-10T02:20:35;13.30;85.70
56538;DHT22;42435;53.292;6.000;2023-05-10T02:23:04;13.20;85.60
56538;DHT22;42435;53.292;6.000;2023-05-10T02:25:31;13.30;85.70
56538;DHT22;42435;53.292;6.000;2023-05-10T02:27:59;13.30;85.70
56538;DHT22;42435;53.292;6.000;2023-05-10T02:30:26;13.20;85.80
56538;DHT22;42435;53.292;6.000;2023-05-10T02:32:54;13.30;85.70
56538;DHT22;42435;53.292;6.000;2023-05-10T02:35:22;13.20;85.80
56538;DHT22;42435;53.292;6.000;2023-05-10T02:37:49;13.20;85.90
56538;DHT22;42435;53.292;6.000;2023-05-10T02:40:16;13.30;85.90
56538;DHT22;42435;53.292;6.000;2023-05-10T02:42:44;13.20;85.90
56538;DHT22;42435;53.292;6.000;2023-05-10T02:45:13;13.30;85.90
56538;DHT22;42435;53.292;6.000;2023-05-10T02:47:39;13.30;85.90
56538;DHT22;42435;53.292;6.000;2023-05-10T02:50:06;13.30;85.80
56538;DHT22;42435;53.292;6.000;2023-05-10T02:52:49;13.20;85.80
56538;DHT22;42435;53.292;6.000;2023-05-10T02:55:21;13.20;85.90
56538;DHT22;42435;53.292;6.000;2023-05-10T02:57:59;13.30;85.90
56538;DHT22;42435;53.292;6.000;2023-05-10T03:00:25;13.30;86.00
56538;DHT22;42435;53.292;6.000;2023-05-10T03:02:51;13.30;85.90
56538;DHT22;42435;53.292;6.000;2023-05-10T03:05:18;13.40;85.90
56538;DHT22;42435;53.292;6.000;2023-05-10T03:07:45;13.30;85.90
56538;DHT22;42435;53.292;6.000;2023-05-10T03:10:11;13.30;85.80
56538;DHT22;42435;53.292;6.000;2023-05-10T03:18:22;13.30;85.90
56538;DHT22;42435;53.292;6.000;2023-05-10T03:20:50;13.30;85.90
56538;DHT22;42435;53.292;6.000;2023-05-10T03:23:26;13.30;85.90
56538;DHT22;42435;53.292;6.000;2023-05-10T03:25:52;13.30;85.90
56538;DHT22;42435;53.292;6.000;2023-05-10T03:28:20;13.30;85.90
56538;DHT22;42435;53.292;6.000;2023-05-10T03:30:47;13.30;85.90
56538;DHT22;42435;53.292;6.000;2023-05-10T03:33:13;13.30;86.00
56538;DHT22;42435;53.292;6.000;2023-05-10T03:35:39;13.30;86.00
56538;DHT22;42435;53.292;6.000;2023-05-10T03:38:05;13.30;86.00
56538;DHT22;42435;53.292;6.000;2023-05-10T03:40:48;13.30;86.00
56538;DHT22;42435;53.292;6.000;2023-05-10T03:43:14;13.30;86.00
56538;DHT22;42435;53.292;6.000;2023-05-10T03:45:40;13.30;86.00
56538;DHT22;42435;53.292;6.000;2023-05-10T03:48:05;13.30;86.00
56538;DHT22;42435;53.292;6.000;2023-05-10T03:50:31;13.40;86.10
56538;DHT22;42435;53.292;6.000;2023-05-10T03:52:56;13.40;86.10
56538;DHT22;42435;53.292;6.000;2023-05-10T03:55:23;13.40;86.10
56538;DHT22;42435;53.292;6.000;2023-05-10T03:57:48;13.30;86.00
56538;DHT22;42435;53.292;6.000;2023-05-10T04:00:15;13.40;86.00
56538;DHT22;42435;53.292;6.000;2023-05-10T04:02:42;13.40;86.10
56538;DHT22;42435;53.292;6.000;2023-05-10T04:05:11;13.40;86.00
56538;DHT22;42435;53.292;6.000;2023-05-10T04:07:36;13.40;86.00
56538;DHT22;42435;53.292;6.000;2023-05-10T04:10:02;13.40;86.00
56538;DHT22;42435;53.292;6.000;2023-05-10T04:12:28;13.40;86.00
56538;DHT22;42435;53.292;6.000;2023-05-10T04:14:53;13.40;86.00
56538;DHT22;42435;53.292;6.000;2023-05-10T04:17:19;13.50;86.00
56538;DHT22;42435;53.292;6.000;2023-05-10T04:19:44;13.40;86.00
56538;DHT22;42435;53.292;6.000;2023-05-10T04:22:10;13.40;86.00
56538;DHT22;42435;53.292;6.000;2023-05-10T04:24:36;13.40;86.00
56538;DHT22;42435;53.292;6.000;2023-05-10T04:27:01;13.40;86.00
56538;DHT22;42435;53.292;6.000;2023-05-10T04:29:27;13.40;86.00
56538;DHT22;42435;53.292;6.000;2023-05-10T04:31:53;13.40;86.00
56538;DHT22;42435;53.292;6.000;2023-05-10T04:34:20;13.40;86.00
56538;DHT22;42435;53.292;6.000;2023-05-10T04:36:46;13.40;86.00
56538;DHT22;42435;53.292;6.000;2023-05-10T04:39:11;13.40;86.00
56538;DHT22;42435;53.292;6.000;2023-05-10T04:41:37;13.40;86.00
56538;DHT22;42435;53.292;6.000;2023-05-10T04:44:03;13.50;86.00
56538;DHT22;42435;53.292;6.000;2023-05-10T04:46:29;13.50;86.00
56538;DHT22;42435;53.292;6.000;2023-05-10T04:48:54;13.50;85.90
56538;DHT22;42435;53.292;6.000;2023-05-10T04:51:23;13.50;85.80
56538;DHT22;42435;53.292;6.000;2023-05-10T04:53:49;13.50;85.80
56538;DHT22;42435;53.292;6.000;2023-05-10T04:56:15;13.50;85.80
56538;DHT22;42435;53.292;6.000;2023-05-10T04:58:41;13.50;85.80
56538;DHT22;42435;53.292;6.000;2023-05-10T05:01:07;13.50;85.80
56538;DHT22;42435;53.292;6.000;2023-05-10T05:03:38;13.50;85.70
56538;DHT22;42435;53.292;6.000;2023-05-10T05:06:06;13.50;85.70
56538;DHT22;42435;53.292;6.000;2023-05-10T05:08:32;13.50;85.70
56538;DHT22;42435;53.292;6.000;2023-05-10T05:10:57;13.40;85.70
56538;DHT22;42435;53.292;6.000;2023-05-10T05:13:24;13.50;85.70
56538;DHT22;42435;53.292;6.000;2023-05-10T05:15:50;13.50;85.70
56538;DHT22;42435;53.292;6.000;2023-05-10T05:18:15;13.50;85.70
56538;DHT22;42435;53.292;6.000;2023-05-10T05:20:41;13.50;85.60
56538;DHT22;42435;53.292;6.000;2023-05-10T05:23:07;13.50;85.50
56538;DHT22;42435;53.292;6.000;2023-05-10T05:25:33;13.50;85.50
56538;DHT22;42435;53.292;6.000;2023-05-10T05:27:59;13.40;85.40
56538;DHT22;42435;53.292;6.000;2023-05-10T05:30:24;13.40;85.40
56538;DHT22;42435;53.292;6.000;2023-05-10T05:32:51;13.40;85.40
56538;DHT22;42435;53.292;6.000;2023-05-10T05:35:17;13.40;85.40
56538;DHT22;42435;53.292;6.000;2023-05-10T05:37:46;13.40;85.40
56538;DHT22;42435;53.292;6.000;2023-05-10T05:40:14;13.40;85.40
56538;DHT22;42435;53.292;6.000;2023-05-10T05:42:40;13.40;85.40
56538;DHT22;42435;53.292;6.000;2023-05-10T05:45:06;13.40;85.40
56538;DHT22;42435;53.292;6.000;2023-05-10T05:47:34;13.40;85.40
56538;DHT22;42435;53.292;6.000;2023-05-10T05:50:02;13.40;85.40
56538;DHT22;42435;53.292;6.000;2023-05-10T05:52:30;13.40;85.50
56538;DHT22;42435;53.292;6.000;2023-05-10T05:54:55;13.40;85.50
56538;DHT22;42435;53.292;6.000;2023-05-10T05:57:21;13.40;85.50
56538;DHT22;42435;53.292;6.000;2023-05-10T05:59:47;13.40;85.50
56538;DHT22;42435;53.292;6.000;2023-05-10T06:02:13;13.50;85.60
56538;DHT22;42435;53.292;6.000;2023-05-10T06:04:38;13.50;85.50
56538;DHT22;42435;53.292;6.000;2023-05-10T06:07:04;13.50;85.50
56538;DHT22;42435;53.292;6.000;2023-05-10T06:09:30;13.50;85.50
56538;DHT22;42435;53.292;6.000;2023-05-10T06:11:55;13.60;85.40
56538;DHT22;42435;53.292;6.000;2023-05-10T06:14:21;13.60;85.30
56538;DHT22;42435;53.292;6.000;2023-05-10T06:16:48;13.60;85.30
56538;DHT22;42435;53.292;6.000;2023-05-10T06:19:14;13.70;85.30
56538;DHT22;42435;53.292;6.000;2023-05-10T06:21:39;13.70;85.30
56538;DHT22;42435;53.292;6.000;2023-05-10T06:24:05;13.70;85.20
56538;DHT22;42435;53.292;6.000;2023-05-10T06:26:32;13.70;85.20
56538;DHT22;42435;53.292;6.000;2023-05-10T06:28:58;13.80;85.10
56538;DHT22;42435;53.292;6.000;2023-05-10T06:31:24;13.80;85.10
56538;DHT22;42435;53.292;6.000;2023-05-10T06:33:50;13.80;85.10
56538;DHT22;42435;53.292;6.000;2023-05-10T06:36:16;13.90;85.10
56538;DHT22;42435;53.292;6.000;2023-05-10T06:38:41;13.90;85.10
56538;DHT22;42435;53.292;6.000;2023-05-10T06:41:07;13.90;85.00
56538;DHT22;42435;53.292;6.000;2023-05-10T06:43:35;13.90;85.00
56538;DHT22;42435;53.292;6.000;2023-05-10T06:46:05;13.90;84.90
56538;DHT22;42435;53.292;6.000;2023-05-10T06:48:30;13.90;84.90
56538;DHT22;42435;53.292;6.000;2023-05-10T06:50:56;13.90;84.90
56538;DHT22;42435;53.292;6.000;2023-05-10T06:53:22;13.90;84.80
56538;DHT22;42435;53.292;6.000;2023-05-10T06:55:49;13.90;84.80
56538;DHT22;42435;53.292;6.000;2023-05-10T06:58:14;13.90;84.80
56538;DHT22;42435;53.292;6.000;2023-05-10T07:00:40;14.00;84.80
56538;DHT22;42435;53.292;6.000;2023-05-10T07:03:10;14.00;84.80
56538;DHT22;42435;53.292;6.000;2023-05-10T07:05:36;14.00;84.90
56538;DHT22;42435;53.292;6.000;2023-05-10T07:08:01;14.10;85.00
56538;DHT22;42435;53.292;6.000;2023-05-10T07:10:27;14.20;85.00
56538;DHT22;42435;53.292;6.000;2023-05-10T07:12:53;14.20;84.90
56538;DHT22;42435;53.292;6.000;2023-05-10T07:15:18;14.30;85.00
56538;DHT22;42435;53.292;6.000;2023-05-10T07:17:44;14.40;84.90
56538;DHT22;42435;53.292;6.000;2023-05-10T07:20:10;14.40;84.80
56538;DHT22;42435;53.292;6.000;2023-05-10T07:22:36;14.40;84.70
56538;DHT22;42435;53.292;6.000;2023-05-10T07:25:02;14.40;84.50
56538;DHT22;42435;53.292;6.000;2023-05-10T07:27:28;14.40;84.30
56538;DHT22;42435;53.292;6.000;2023-05-10T07:29:54;14.40;84.10
56538;DHT22;42435;53.292;6.000;2023-05-10T07:32:21;14.40;84.30
56538;DHT22;42435;53.292;6.000;2023-05-10T07:34:48;14.40;84.30
56538;DHT22;42435;53.292;6.000;2023-05-10T07:37:14;14.40;84.20
56538;DHT22;42435;53.292;6.000;2023-05-10T07:39:39;14.40;84.00
56538;DHT22;42435;53.292;6.000;2023-05-10T07:42:05;14.40;84.00
56538;DHT22;42435;53.292;6.000;2023-05-10T07:44:31;14.40;84.10
56538;DHT22;42435;53.292;6.000;2023-05-10T07:46:56;14.50;84.00
56538;DHT22;42435;53.292;6.000;2023-05-10T07:49:22;14.40;83.90
56538;DHT22;42435;53.292;6.000;2023-05-10T07:51:49;14.40;83.90
56538;DHT22;42435;53.292;6.000;2023-05-10T07:54:15;14.50;84.00
56538;DHT22;42435;53.292;6.000;2023-05-10T07:56:41;14.50;84.10
56538;DHT22;42435;53.292;6.000;2023-05-10T07:59:15;14.60;84.00
56538;DHT22;42435;53.292;6.000;2023-05-10T08:01:42;14.70;84.00
56538;DHT22;42435;53.292;6.000;2023-05-10T08:04:11;14.80;84.00
56538;DHT22;42435;53.292;6.000;2023-05-10T08:06:37;14.90;83.90
56538;DHT22;42435;53.292;6.000;2023-05-10T08:09:02;14.90;83.90
56538;DHT22;42435;53.292;6.000;2023-05-10T08:11:28;14.90;83.80
56538;DHT22;42435;53.292;6.000;2023-05-10T08:13:54;15.00;83.50
56538;DHT22;42435;53.292;6.000;2023-05-10T08:16:20;15.10;83.30
56538;DHT22;42435;53.292;6.000;2023-05-10T08:18:47;15.10;83.00
56538;DHT22;42435;53.292;6.000;2023-05-10T08:21:13;15.00;82.70
56538;DHT22;42435;53.292;6.000;2023-05-10T08:23:39;15.10;82.70
56538;DHT22;42435;53.292;6.000;2023-05-10T08:26:05;15.00;82.60
56538;DHT22;42435;53.292;6.000;2023-05-10T08:28:32;15.00;82.50
56538;DHT22;42435;53.292;6.000;2023-05-10T08:30:59;15.00;82.50
56538;DHT22;42435;53.292;6.000;2023-05-10T08:33:25;15.00;82.50
56538;DHT22;42435;53.292;6.000;2023-05-10T08:35:51;15.00;82.40
56538;DHT22;42435;53.292;6.000;2023-05-10T08:38:17;15.00;82.40
56538;DHT22;42435;53.292;6.000;2023-05-10T08:40:43;15.00;82.40
56538;DHT22;42435;53.292;6.000;2023-05-10T08:43:11;15.10;82.30
56538;DHT22;42435;53.292;6.000;2023-05-10T08:45:41;15.00;82.20
56538;DHT22;42435;53.292;6.000;2023-05-10T08:48:10;15.10;82.30
56538;DHT22;42435;53.292;6.000;2023-05-10T08:50:36;15.10;82.20
56538;DHT22;42435;53.292;6.000;2023-05-10T08:53:11;15.20;82.10
56538;DHT22;42435;53.292;6.000;2023-05-10T08:55:39;15.20;82.10
56538;DHT22;42435;53.292;6.000;2023-05-10T08:58:06;15.20;82.10
56538;DHT22;42435;53.292;6.000;2023-05-10T09:00:33;15.30;82.30
56538;DHT22;42435;53.292;6.000;2023-05-10T09:03:01;15.40;82.00
56538;DHT22;42435;53.292;6.000;2023-05-10T09:05:27;15.40;81.80
56538;DHT22;42435;53.292;6.000;2023-05-10T09:07:53;15.40;81.70
56538;DHT22;42435;53.292;6.000;2023-05-10T09:10:19;15.50;81.80
56538;DHT22;42435;53.292;6.000;2023-05-10T09:12:48;15.60;81.40
56538;DHT22;42435;53.292;6.000;2023-05-10T09:15:18;15.60;81.50
56538;DHT22;42435;53.292;6.000;2023-05-10T09:17:45;15.70;81.50
56538;DHT22;42435;53.292;6.000;2023-05-10T09:20:11;15.80;81.40
56538;DHT22;42435;53.292;6.000;2023-05-10T09:22:37;15.80;81.00
56538;DHT22;42435;53.292;6.000;2023-05-10T09:25:10;15.80;80.90
56538;DHT22;42435;53.292;6.000;2023-05-10T09:27:45;15.90;80.80
56538;DHT22;42435;53.292;6.000;2023-05-10T09:30:26;15.90;80.70
56538;DHT22;42435;53.292;6.000;2023-05-10T09:32:54;16.00;80.50
56538;DHT22;42435;53.292;6.000;2023-05-10T09:35:22;16.00;80.20
56538;DHT22;42435;53.292;6.000;2023-05-10T09:37:53;16.00;80.00
56538;DHT22;42435;53.292;6.000;2023-05-10T09:40:21;16.00;80.20
56538;DHT22;42435;53.292;6.000;2023-05-10T09:45:28;16.00;79.70
56538;DHT22;42435;53.292;6.000;2023-05-10T09:47:54;16.00;79.50
56538;DHT22;42435;53.292;6.000;2023-05-10T09:50:20;16.00;79.20
56538;DHT22;42435;53.292;6.000;2023-05-10T09:52:50;16.00;79.30
56538;DHT22;42435;53.292;6.000;2023-05-10T09:55:18;15.90;79.30
56538;DHT22;42435;53.292;6.000;2023-05-10T09:57:44;15.90;79.20
56538;DHT22;42435;53.292;6.000;2023-05-10T10:00:10;15.90;79.20
56538;DHT22;42435;53.292;6.000;2023-05-10T10:02:36;15.90;79.40
56538;DHT22;42435;53.292;6.000;2023-05-10T10:05:06;15.90;79.50
56538;DHT22;42435;53.292;6.000;2023-05-10T10:07:32;15.90;79.70
56538;DHT22;42435;53.292;6.000;2023-05-10T10:09:59;16.00;79.70
56538;DHT22;42435;53.292;6.000;2023-05-10T10:12:26;16.00;79.70
56538;DHT22;42435;53.292;6.000;2023-05-10T10:14:53;16.00;79.40
56538;DHT22;42435;53.292;6.000;2023-05-10T10:17:21;16.00;79.40
56538;DHT22;42435;53.292;6.000;2023-05-10T10:19:47;16.00;79.60
56538;DHT22;42435;53.292;6.000;2023-05-10T10:22:13;16.10;79.40
56538;DHT22;42435;53.292;6.000;2023-05-10T10:24:42;16.10;79.20
56538;DHT22;42435;53.292;6.000;2023-05-10T10:30:13;16.20;79.30
56538;DHT22;42435;53.292;6.000;2023-05-10T10:35:38;16.20;78.80
56538;DHT22;42435;53.292;6.000;2023-05-10T10:38:11;16.20;79.20
56538;DHT22;42435;53.292;6.000;2023-05-10T10:40:38;16.40;79.00
56538;DHT22;42435;53.292;6.000;2023-05-10T10:43:24;16.40;79.40
56538;DHT22;42435;53.292;6.000;2023-05-10T10:46:11;16.50;79.20
56538;DHT22;42435;53.292;6.000;2023-05-10T10:48:41;16.70;79.10
56538;DHT22;42435;53.292;6.000;2023-05-10T10:51:07;16.80;78.80
56538;DHT22;42435;53.292;6.000;2023-05-10T10:53:33;16.90;78.50
56538;DHT22;42435;53.292;6.000;2023-05-10T10:56:08;17.00;78.50
56538;DHT22;42435;53.292;6.000;2023-05-10T10:58:40;17.00;77.70
56538;DHT22;42435;53.292;6.000;2023-05-10T11:01:17;17.00;77.30
56538;DHT22;42435;53.292;6.000;2023-05-10T11:06:29;17.00;76.30
56538;DHT22;42435;53.292;6.000;2023-05-10T11:08:57;16.90;76.40
56538;DHT22;42435;53.292;6.000;2023-05-10T11:11:23;16.90;76.40
56538;DHT22;42435;53.292;6.000;2023-05-10T11:13:48;16.90;76.60
56538;DHT22;42435;53.292;6.000;2023-05-10T11:16:21;16.90;76.20
56538;DHT22;42435;53.292;6.000;2023-05-10T11:18:59;16.90;75.90
56538;DHT22;42435;53.292;6.000;2023-05-10T11:21:27;16.90;75.80
56538;DHT22;42435;53.292;6.000;2023-05-10T11:23:54;16.80;76.00
56538;DHT22;42435;53.292;6.000;2023-05-10T11:26:24;16.80;76.10
56538;DHT22;42435;53.292;6.000;2023-05-10T11:28:53;16.80;76.20
56538;DHT22;42435;53.292;6.000;2023-05-10T11:31:23;16.70;76.30
56538;DHT22;42435;53.292;6.000;2023-05-10T11:33:51;16.80;76.10
56538;DHT22;42435;53.292;6.000;2023-05-10T11:36:19;16.80;76.10
56538;DHT22;42435;53.292;6.000;2023-05-10T11:38:46;16.90;76.10
56538;DHT22;42435;53.292;6.000;2023-05-10T11:41:17;16.90;76.00
56538;DHT22;42435;53.292;6.000;2023-05-10T11:43:49;17.00;75.70
56538;DHT22;42435;53.292;6.000;2023-05-10T11:46:15;17.10;75.50
56538;DHT22;42435;53.292;6.000;2023-05-10T11:48:42;17.20;75.20
56538;DHT22;42435;53.292;6.000;2023-05-10T11:51:11;17.20;75.30
56538;DHT22;42435;53.292;6.000;2023-05-10T11:53:37;17.30;75.10
56538;DHT22;42435;53.292;6.000;2023-05-10T11:56:10;17.40;74.80
56538;DHT22;42435;53.292;6.000;2023-05-10T11:58:37;17.40;74.90
56538;DHT22;42435;53.292;6.000;2023-05-10T12:01:04;17.40;74.70
56538;DHT22;42435;53.292;6.000;2023-05-10T12:03:30;17.50;74.30
56538;DHT22;42435;53.292;6.000;2023-05-10T12:05:57;17.40;74.00
56538;DHT22;42435;53.292;6.000;2023-05-10T12:08:24;17.40;73.70
56538;DHT22;42435;53.292;6.000;2023-05-10T12:10:52;17.40;73.70
56538;DHT22;42435;53.292;6.000;2023-05-10T12:13:21;17.50;73.50
56538;DHT22;42435;53.292;6.000;2023-05-10T12:15:49;17.50;73.50
56538;DHT22;42435;53.292;6.000;2023-05-10T12:18:22;17.60;73.40
56538;DHT22;42435;53.292;6.000;2023-05-10T12:20:52;17.70;72.90
56538;DHT22;42435;53.292;6.000;2023-05-10T12:23:21;17.80;72.80
56538;DHT22;42435;53.292;6.000;2023-05-10T12:25:47;17.90;72.90
56538;DHT22;42435;53.292;6.000;2023-05-10T12:28:13;18.00;72.40
56538;DHT22;42435;53.292;6.000;2023-05-10T12:30:38;18.20;71.90
56538;DHT22;42435;53.292;6.000;2023-05-10T12:33:12;18.30;71.70
56538;DHT22;42435;53.292;6.000;2023-05-10T12:35:51;18.40;71.30
56538;DHT22;42435;53.292;6.000;2023-05-10T12:38:41;18.40;70.50
56538;DHT22;42435;53.292;6.000;2023-05-10T12:41:18;18.50;70.10
56538;DHT22;42435;53.292;6.000;2023-05-10T12:43:44;18.50;70.20
56538;DHT22;42435;53.292;6.000;2023-05-10T12:46:17;18.60;70.60
56538;DHT22;42435;53.292;6.000;2023-05-10T12:48:43;18.60;70.90
56538;DHT22;42435;53.292;6.000;2023-05-10T12:51:10;18.70;71.20
56538;DHT22;42435;53.292;6.000;2023-05-10T12:53:37;18.70;71.20
56538;DHT22;42435;53.292;6.000;2023-05-10T12:56:06;18.70;71.40
56538;DHT22;42435;53.292;6.000;2023-05-10T12:58:32;18.70;71.30
56538;DHT22;42435;53.292;6.000;2023-05-10T13:00:58;18.80;71.10
56538;DHT22;42435;53.292;6.000;2023-05-10T13:03:24;18.80;70.90
56538;DHT22;42435;53.292;6.000;2023-05-10T13:05:51;18.80;70.80
56538;DHT22;42435;53.292;6.000;2023-05-10T13:08:17;18.70;70.90
56538;DHT22;42435;53.292;6.000;2023-05-10T13:10:44;18.60;71.30
56538;DHT22;42435;53.292;6.000;2023-05-10T13:13:09;18.70;71.20
56538;DHT22;42435;53.292;6.000;2023-05-10T13:15:35;18.70;71.20
56538;DHT22;42435;53.292;6.000;2023-05-10T13:18:01;18.80;71.20
56538;DHT22;42435;53.292;6.000;2023-05-10T13:20:26;18.90;71.40
56538;DHT22;42435;53.292;6.000;2023-05-10T13:22:53;18.90;71.30
56538;DHT22;42435;53.292;6.000;2023-05-10T13:25:18;19.00;71.30
56538;DHT22;42435;53.292;6.000;2023-05-10T13:27:44;19.00;71.00
56538;DHT22;42435;53.292;6.000;2023-05-10T13:30:10;19.10;70.40
56538;DHT22;42435;53.292;6.000;2023-05-10T13:32:39;19.20;70.60
56538;DHT22;42435;53.292;6.000;2023-05-10T13:35:05;19.30;70.80
56538;DHT22;42435;53.292;6.000;2023-05-10T13:37:31;19.40;70.70
56538;DHT22;42435;53.292;6.000;2023-05-10T13:39:57;19.60;70.70
56538;DHT22;42435;53.292;6.000;2023-05-10T13:42:24;19.70;70.40
56538;DHT22;42435;53.292;6.000;2023-05-10T13:44:50;19.80;69.90
56538;DHT22;42435;53.292;6.000;2023-05-10T13:47:17;19.90;69.10
56538;DHT22;42435;53.292;6.000;2023-05-10T13:49:43;19.90;68.80
56538;DHT22;42435;53.292;6.000;2023-05-10T13:52:09;19.90;68.70
56538;DHT22;42435;53.292;6.000;2023-05-10T13:54:36;19.90;68.60
56538;DHT22;42435;53.292;6.000;2023-05-10T13:57:02;19.90;68.40
56538;DHT22;42435;53.292;6.000;2023-05-10T13:59:28;19.90;68.30
56538;DHT22;42435;53.292;6.000;2023-05-10T14:01:54;19.90;68.60
56538;DHT22;42435;53.292;6.000;2023-05-10T14:04:19;19.90;68.70
56538;DHT22;42435;53.292;6.000;2023-05-10T14:06:46;19.90;68.70
56538;DHT22;42435;53.292;6.000;2023-05-10T14:09:11;19.90;68.60
56538;DHT22;42435;53.292;6.000;2023-05-10T14:11:38;20.00;68.10
56538;DHT22;42435;53.292;6.000;2023-05-10T14:14:07;20.00;68.00
56538;DHT22;42435;53.292;6.000;2023-05-10T14:16:32;20.00;68.20
56538;DHT22;42435;53.292;6.000;2023-05-10T14:18:58;20.00;68.20
56538;DHT22;42435;53.292;6.000;2023-05-10T14:21:25;20.20;68.40
56538;DHT22;42435;53.292;6.000;2023-05-10T14:23:50;20.30;68.40
56538;DHT22;42435;53.292;6.000;2023-05-10T14:26:16;20.40;67.70
56538;DHT22;42435;53.292;6.000;2023-05-10T14:28:41;20.40;67.20
56538;DHT22;42435;53.292;6.000;2023-05-10T14:31:07;20.40;66.90
56538;DHT22;42435;53.292;6.000;2023-05-10T14:33:33;20.40;66.60
56538;DHT22;42435;53.292;6.000;2023-05-10T14:35:58;20.30;66.80
56538;DHT22;42435;53.292;6.000;2023-05-10T14:38:25;20.30;66.80
56538;DHT22;42435;53.292;6.000;2023-05-10T14:40:51;20.20;67.10
56538;DHT22;42435;53.292;6.000;2023-05-10T14:43:17;20.10;67.10
56538;DHT22;42435;53.292;6.000;2023-05-10T14:45:43;20.00;67.30
56538;DHT22;42435;53.292;6.000;2023-05-10T14:48:09;20.00;67.60
56538;DHT22;42435;53.292;6.000;2023-05-10T14:50:37;20.00;67.90
56538;DHT22;42435;53.292;6.000;2023-05-10T14:53:03;19.90;68.10
56538;DHT22;42435;53.292;6.000;2023-05-10T14:55:29;20.00;68.20
56538;DHT22;42435;53.292;6.000;2023-05-10T14:57:58;20.00;67.90
56538;DHT22;42435;53.292;6.000;2023-05-10T15:00:24;20.00;67.60
56538;DHT22;42435;53.292;6.000;2023-05-10T15:02:50;20.00;67.80
56538;DHT22;42435;53.292;6.000;2023-05-10T15:05:16;20.00;68.10
56538;DHT22;42435;53.292;6.000;2023-05-10T15:07:41;20.00;67.70
56538;DHT22;42435;53.292;6.000;2023-05-10T15:10:09;20.00;67.80
56538;DHT22;42435;53.292;6.000;2023-05-10T15:12:36;20.10;67.60
56538;DHT22;42435;53.292;6.000;2023-05-10T15:15:02;20.20;67.00
56538;DHT22;42435;53.292;6.000;2023-05-10T15:17:29;20.20;66.60
56538;DHT22;42435;53.292;6.000;2023-05-10T15:19:55;20.30;66.40
56538;DHT22;42435;53.292;6.000;2023-05-10T15:22:21;20.40;66.40
56538;DHT22;42435;53.292;6.000;2023-05-10T15:24:47;20.40;66.60
56538;DHT22;42435;53.292;6.000;2023-05-10T15:27:12;20.40;66.30
56538;DHT22;42435;53.292;6.000;2023-05-10T15:29:39;20.40;65.90
56538;DHT22;42435;53.292;6.000;2023-05-10T15:32:08;20.40;65.80
56538;DHT22;42435;53.292;6.000;2023-05-10T15:34:34;20.40;66.20
56538;DHT22;42435;53.292;6.000;2023-05-10T15:37:01;20.30;66.30
56538;DHT22;42435;53.292;6.000;2023-05-10T15:39:26;20.40;66.40
56538;DHT22;42435;53.292;6.000;2023-05-10T15:41:52;20.30;65.70
56538;DHT22;42435;53.292;6.000;2023-05-10T15:44:17;20.20;65.50
56538;DHT22;42435;53.292;6.000;2023-05-10T15:46:43;20.10;65.40
56538;DHT22;42435;53.292;6.000;2023-05-10T15:49:10;20.00;65.40
56538;DHT22;42435;53.292;6.000;2023-05-10T15:51:36;19.90;65.70
56538;DHT22;42435;53.292;6.000;2023-05-10T15:54:01;19.90;66.00